Aeroporto :
LOGIN :

Iscrizione | Disclaimer

   EN    FR    IT 

 










Sommario :    VFR   VFR Marginale   IFR   IFR Intensivo   IFR Molto Intensivo
Visibilità : 
Base nubi : 
>= 8 km
>= 3000ft
5 / 8 km
1000 / 3000 ft
1500m / 5 km
500 / 1000 ft
800 / 1500m
200 / 500 ft
< 800m
< 200 ft
Simboli :   Temporali  Nebbia  Neve Forte  Precipitazioni Forti  Vento > 20 kt
SIGMETs :   Varie  Temporali  Ghiacco  Turbolenza  Onda orograficha  Ceneri Vulcaniche






- Altitudine del aeroporto : 499 ft
- Codice IATA : TLS


LFBO - Toulouse / Blagnac

ULTIMO METAR :
  • 280500Z AUTO 14005KT 9999 FEW010 16/14 Q1026 NOSIG

METARs OBSOLETI :
  • 280430Z AUTO 13008KT CAVOK 16/14 Q1026 NOSIG
  • 280400Z AUTO 15005KT CAVOK 15/13 Q1026 NOSIG
  • 280330Z AUTO 15006KT CAVOK 15/13 Q1025 NOSIG
  • 280300Z AUTO 16004KT CAVOK 15/13 Q1026 NOSIG
  • 280230Z AUTO 12003KT CAVOK 16/12 Q1026 NOSIG

TAF TAF LFBO
Valido dal 28 a 00 ore il 29 a 06 ore UTC


272300Z 2800/2906 14012KT CAVOK
BECMG 2800/2802 VRB03KT
TEMPO 2808/2812 12010KT
ATIS : +33 5 62 74 66 36



MetMap, La meteo Aeronautica in un colpo d'occhio ! - Copyright ORBIFLY Dicembre 2007 - Disclaimer

ORBIFLY MET'MAP TEAM :

Programmazione e sviluppo : Alexandra Zaïnal
Concezione : Baudouin d'Aumeries
Aiuto per la programmazione : Marc-Olivier Méhu
Supporto tecnico e logistico : Manuel Goepfert
Aiuto per la traduzione : Arnaldo La Scala

Contatto : metmap@orbifly.com




FONTI E CREDITI :

   NOAA